Flight Track Log - Related Links

Times and Time Zones

All times are in EDT time to prevent confusion due to time zone crossing. See the AAL1398 flight status page for this flight to view local times or setup timezone preferences in your user account.

Time Position Orientation Groundspeed Altitude Reporting Facility
EDT Latitude Longitude Course Direction KTS MPH feet Rate Location/Type
Sat 12:53:00 PM 18.5252 -69.7390 328° Northwest  Level FlightAware Approximate
Sat 12:54:00 PM 18.6130 -69.8014 325° Northwest  Level FlightAware Approximate
Sat 12:55:00 PM 18.7029 -69.8602 329° Northwest  Level FlightAware Approximate
Sat 12:56:00 PM 18.7926 -69.9194 325° Northwest  Level FlightAware Approximate
Sat 12:57:00 PM 18.8789 -69.9842 325° Northwest  Level FlightAware Approximate
Sat 12:58:00 PM 18.9652 -70.0489 325° Northwest  Level FlightAware Approximate
Sat 12:59:00 PM 19.0516 -70.1136 325° Northwest  Level FlightAware Approximate
Sat 01:00:00 PM 19.1379 -70.1784 325° Northwest  Level FlightAware Approximate
Sat 01:01:00 PM 19.2264 -70.2398 328° Northwest  Level FlightAware Approximate
Sat 01:02:00 PM 19.3160 -70.2996 328° Northwest  Level FlightAware Approximate
Sat 01:03:00 PM 19.4005 -70.3671 323° Northwest  Level FlightAware Approximate
Sat 01:04:00 PM 19.4851 -70.4346 325° Northwest  Level FlightAware Approximate
Sat 01:05:00 PM 19.5715 -70.4994 325° Northwest  Level FlightAware Approximate
Sat 01:06:00 PM 19.6579 -70.5643 325° Northwest  Level FlightAware Approximate
Sat 01:07:00 PM 19.7508 -70.6174 317° Northwest  Level FlightAware Approximate
Sat 01:08:00 PM 19.8353 -70.6848 325° Northwest  Level FlightAware Approximate
Sat 01:09:00 PM 19.9218 -70.7497 325° Northwest  Level FlightAware Approximate
Sat 01:10:00 PM 20.0084 -70.8145 325° Northwest  Level FlightAware Approximate
Sat 01:11:00 PM 20.0949 -70.8795 325° Northwest  Level FlightAware Approximate
Sat 01:12:00 PM 20.1814 -70.9443 325° Northwest  Level FlightAware Approximate
Sat 01:13:00 PM 20.2680 -71.0092 325° Northwest  Level FlightAware Approximate
Sat 01:14:00 PM 20.3545 -71.0742 325° Northwest  Level FlightAware Approximate
Sat 01:15:00 PM 20.4337 -71.1456 302° West  Level FlightAware Approximate
Sat 01:15:10 PM 20.1228 -70.9547 302° West 453 521 38,000  Level Miami Center
Sat 01:16:00 PM 20.4901 -71.2412 302° West  Level FlightAware Approximate
Sat 01:16:10 PM 20.2250 -71.0144 331° Northwest 436 502 38,000  Level Miami Center
Sat 01:17:00 PM 20.5463 -71.3370 302° West  Level FlightAware Approximate
Sat 01:17:10 PM 20.3314 -71.0719 333° Northwest 426 490 38,000  Level Miami Center
Sat 01:18:00 PM 20.6037 -71.4320 304° West  Level FlightAware Approximate
Sat 01:18:10 PM 20.4278 -71.1408 326° Northwest 421 484 38,000  Level Miami Center
Sat 01:19:00 PM 20.6632 -71.5255 304° West  Level FlightAware Approximate
Sat 01:19:10 PM 20.4919 -71.2397 305° West 402 463 38,000  Level Miami Center
Sat 01:20:00 PM 20.7216 -71.6198 302° West  Level FlightAware Approximate
Sat 01:20:10 PM 20.5603 -71.3478 304° West 408 470 38,000  Level Miami Center
Sat 01:21:10 PM 20.6222 -71.4492 303° West 408 470 38,000  Level Miami Center
Sat 01:22:10 PM 20.6842 -71.5511 303° West 408 470 38,000  Level Miami Center
Sat 01:23:10 PM 20.7458 -71.6483 304° West 408 470 38,000  Level Miami Center
Sat 01:24:10 PM 20.8075 -71.7481 303° West 408 470 38,000  Level Miami Center
Sat 01:25:10 PM 20.8692 -71.8478 304° West 408 470 38,000  Level Miami Center
Sat 01:26:10 PM 20.9286 -71.9456 303° West 403 464 38,000  Level Miami Center
Sat 01:27:10 PM 20.9903 -72.0456 303° West 403 464 38,000  Level Miami Center
Sat 01:28:10 PM 21.0517 -72.1456 303° West 403 464 38,000  Level Miami Center
Sat 01:29:10 PM 21.1131 -72.2433 304° West 403 464 38,000  Level Miami Center
Sat 01:30:10 PM 21.1725 -72.3414 303° West 403 464 38,000  Level Miami Center
Sat 01:31:10 PM 21.2336 -72.4394 304° West 403 464 38,000  Level Miami Center
Sat 01:32:10 PM 21.2928 -72.5378 303° West 398 458 38,000  Level Miami Center
Sat 01:33:10 PM 21.3519 -72.6361 303° West 398 458 38,000  Level Miami Center
Sat 01:34:10 PM 21.4150 -72.7344 305° West 398 458 38,000  Level Miami Center
Sat 01:35:10 PM 21.4739 -72.8331 303° West 398 458 38,000  Level Miami Center
Sat 01:36:10 PM 21.5350 -72.9314 304° West 393 452 38,000  Level Miami Center
Sat 01:37:10 PM 21.5919 -73.0325 301° West 398 458 38,000  Level Miami Center
Sat 01:38:10 PM 21.6506 -73.1314 303° West 398 458 38,000  Level Miami Center
Sat 01:39:10 PM 21.7094 -73.2325 302° West 398 458 38,000  Level Miami Center
Sat 01:40:10 PM 21.7722 -73.3333 304° West 398 458 38,000  Level Miami Center
Sat 01:41:10 PM 21.8289 -73.4325 302° West 398 458 38,000  Level Miami Center
Sat 01:42:09 PM 21.8894 -73.5339 303° West 398 458 38,000  Level Miami Center
Sat 01:43:09 PM 21.9522 -73.6331 304° West 398 458 38,000  Level Miami Center
Sat 01:44:10 PM 22.0044 -73.7347 299° West 398 458 38,000  Level Miami Center
Sat 01:45:09 PM 22.0628 -73.8342 302° West 398 458 38,000  Level Miami Center
Sat 01:46:10 PM 22.1294 -73.9336 306° West 398 458 38,000  Level Miami Center
Sat 01:47:10 PM 22.1878 -74.0353 302° West 403 464 38,000  Level Miami Center
Sat 01:48:10 PM 22.2483 -74.1372 303° West 403 464 38,000  Level Miami Center
Sat 01:49:10 PM 22.3086 -74.2392 303° West 403 464 38,000  Level Miami Center
Sat 01:50:10 PM 22.3708 -74.3392 304° West 398 458 38,000  Level Miami Center
Sat 01:51:09 PM 22.4331 -74.4433 303° West 403 464 38,000  Level Miami Center
Sat 01:52:10 PM 22.4911 -74.5458 302° West 403 464 38,000  Level Miami Center
Sat 01:53:10 PM 22.5511 -74.6481 302° West 408 470 38,000  Level Miami Center
Sat 01:54:10 PM 22.6131 -74.7506 303° West 408 470 38,000  Level Miami Center
Sat 01:55:10 PM 22.6708 -74.8531 301° West 408 470 38,000  Level Miami Center
Sat 01:56:09 PM 22.7328 -74.9581 303° West 408 470 38,000  Level Miami Center
Sat 01:57:10 PM 22.7906 -75.0631 301° West 408 470 38,000  Level Miami Center
Sat 01:58:10 PM 22.8503 -75.1661 302° West 408 470 38,000  Level Miami Center
Sat 01:59:10 PM 22.9119 -75.2711 303° West 408 470 38,000  Level Miami Center
Sat 02:00:10 PM 22.9631 -75.3631 301° West 408 470 38,000  Level Miami Center
Sat 02:01:10 PM 23.0247 -75.4661 303° West 408 470 38,000  Level Miami Center
Sat 02:02:10 PM 23.0861 -75.5694 303° West 413 475 38,000  Level Miami Center
Sat 02:03:10 PM 23.1456 -75.6750 302° West 408 470 38,000  Level Miami Center
Sat 02:04:10 PM 23.2047 -75.7783 302° West 408 470 38,000  Level Miami Center
Sat 02:05:10 PM 23.2642 -75.8864 301° West 408 470 38,000  Level Miami Center
Sat 02:06:10 PM 23.3253 -75.9922 302° West 408 470 38,000  Level Miami Center
Sat 02:07:10 PM 23.3864 -76.0961 303° West 408 470 38,000  Level Miami Center
Sat 02:08:10 PM 23.4475 -76.1997 303° West 408 470 38,000  Level Miami Center
Sat 02:09:10 PM 23.5108 -76.3106 302° West 408 470 38,000  Level Miami Center
Sat 02:10:10 PM 23.5697 -76.4144 302° West 408 470 38,000  Level Miami Center
Sat 02:11:10 PM 23.6283 -76.5186 302° West 408 470 38,000  Level Miami Center
Sat 02:12:10 PM 23.6872 -76.6206 302° West 408 470 38,000  Level Miami Center
Sat 02:13:10 PM 23.7458 -76.7250 302° West 408 470 38,000  Level Miami Center
Sat 02:14:10 PM 23.8044 -76.8269 302° West 408 470 38,000  Level Miami Center
Sat 02:15:10 PM 23.8628 -76.9317 301° West 408 470 38,000  Level Miami Center
Sat 02:16:10 PM 23.9172 -77.0317 301° West 403 464 38,000  Level Miami Center
Sat 02:17:10 PM 23.9756 -77.1364 301° West 404 465 38,000  Level Miami Center
Sat 02:18:10 PM 24.0336 -77.2433 301° West 404 465 38,000  Level Miami Center
Sat 02:19:10 PM 24.0942 -77.3461 303° West 404 465 38,000  Level Miami Center
Sat 02:20:10 PM 24.1522 -77.4556 300° West 404 465 38,000  Level Miami Center
Sat 02:21:10 PM 24.2103 -77.5631 301° West 404 465 38,000  Level Miami Center
Sat 02:22:10 PM 24.2683 -77.6658 302° West 404 465 38,000  Level Miami Center
Sat 02:23:10 PM 24.3261 -77.7756 300° West 404 465 38,000  Level Miami Center
Sat 02:24:10 PM 24.3861 -77.8811 302° West 404 465 38,000  Level Miami Center
Sat 02:25:10 PM 24.4439 -77.9842 302° West 409 471 38,000  Level Miami Center
Sat 02:26:10 PM 24.4806 -78.0942 290° West 399 459 38,000  Level Miami Center
Sat 02:27:10 PM 24.4692 -78.2128 264° West 378 435 38,000 -150 Level Miami Center
Sat 02:28:10 PM 24.4533 -78.3314 262° West 384 442 37,700 -550 Descending Miami Center
Sat 02:29:10 PM 24.4753 -78.4367 283° West 390 449 36,900 -950 Descending Miami Center
Sat 02:30:10 PM 24.5431 -78.5333 308° West 375 432 35,800 -1,200 Descending Miami Center
Sat 02:31:10 PM 24.6172 -78.6328 309° West 395 455 34,500 -1,350 Descending Miami Center
Sat 02:32:10 PM 24.6850 -78.7275 308° West 406 467 33,100 -1,450 Descending Miami Center
Sat 02:33:10 PM 24.7589 -78.8292 309° West 411 473 31,600 -1,450 Descending Miami Center
Sat 02:34:10 PM 24.8225 -78.9242 306° West 411 473 30,200 -1,600 Descending Miami Center
Sat 02:35:10 PM 24.9025 -79.0308 310° West 411 473 28,400 -1,800 Descending Miami Center
Sat 02:36:10 PM 24.9700 -79.1283 307° West 411 473 26,600 -1,950 Descending Miami Center
Sat 02:37:10 PM 25.0353 -79.2189 309° West 398 458 24,500 -2,118 Descending Miami Center
Sat 02:38:09 PM 25.1008 -79.3119 308° West 387 445 22,400 -2,150 Descending Miami Center
Sat 02:39:10 PM 25.1639 -79.4006 308° West 382 440 20,200 -2,093 Descending Miami Center
Sat 02:39:35 PM 25.1883 -79.4378 306° West 367 422 19,400 -2,100 Descending Miami Center
Sat 02:40:10 PM 25.2231 -79.4889 307° West 370 426 18,100 -2,382 Descending Miami Center
Sat 02:40:43 PM 25.2556 -79.5378 306° West 355 409 16,700 -2,339 Descending Miami Center
Sat 02:41:09 PM 25.2842 -79.5731 312° West 360 414 15,800 -2,262 Descending Miami Center
Sat 02:41:44 PM 25.3147 -79.6219 305° West 349 402 14,400 -2,100 Descending Miami Center
Sat 02:42:09 PM 25.3433 -79.6569 312° West 354 407 13,700 -2,066 Descending Miami Center
Sat 02:42:45 PM 25.3756 -79.7108 304° West 333 383 12,300 -1,700 Descending Miami Center
Sat 02:43:09 PM 25.4003 -79.7367 317° Northwest 343 395 12,000 -295 Descending Miami Center
Sat 02:43:46 PM 25.4306 -79.7925 301° West 326 375 12,000 -100 Level Miami Center
Sat 02:44:09 PM 25.4508 -79.8206 309° West 338 389 11,900 -590 Descending Miami Center
Sat 02:44:47 PM 25.4831 -79.8744 304° West 329 379 11,400 -800 Descending Miami Center
Sat 02:45:09 PM 25.5056 -79.9003 314° West 338 389 11,100 -984 Descending Miami Center
Sat 02:45:48 PM 25.5378 -79.9539 304° West 314 361 10,400 -1,000 Descending Miami Center
Sat 02:46:09 PM 25.5561 -79.9775 311° West 333 383 10,100 -984 Descending Miami Center
Sat 02:46:49 PM 25.5822 -80.0267 300° West 287 330 9,400 -1,000 Descending Miami Center
Sat 02:47:09 PM 25.6028 -80.0500 314° West 314 361 9,100 -387 Descending Miami Center
Sat 02:47:51 PM 25.6286 -80.1014 299° West 264 304 9,000 -100 Descending Miami Center
Sat 02:48:09 PM 25.6453 -80.1133 327° Northwest 285 328 9,000 -98 Level Miami Center
Sat 02:48:52 PM 25.6628 -80.1600 293° West 236 272 8,900 -200 Descending Miami Center
Sat 02:49:09 PM 25.6731 -80.1742 309° West 249 287 8,800 -896 Descending Miami Center
Sat 02:49:59 PM 25.6822 -80.2319 280° West 226 260 7,900 -821 Descending Miami Center
Sat 02:51:06 PM 25.7053 -80.3111 288° West 228 262 7,200 -891 Descending Miami Center
Sat 02:52:07 PM 25.7036 -80.3825 269° West 227 261 6,000 -1,279 Descending Miami Center
Sat 02:53:08 PM 25.6981 -80.4469 265° West 215 247 4,600 -1,034 Descending Miami Center
Sat 02:54:03 PM 25.6964 -80.5089 268° West 217 250 4,000 -443 Descending Miami Center
Sat 02:55:10 PM 25.7461 -80.5314 338° Northwest 214 246 3,700 -582 Descending Miami Center
Sat 02:56:17 PM 25.7786 -80.4747 57° Northeast 199 229 2,700 -896 Descending Miami Center

Login

Don't have an account? Register now (free) for customized features, flight alerts, and more!